createdAt,value
2023-08-13T00:01:03.837Z,2.50
2023-08-13T00:03:30.403Z,3.13
2023-08-13T00:05:56.986Z,2.53
2023-08-13T00:08:23.446Z,3.88
2023-08-13T00:10:49.886Z,2.58
2023-08-13T00:13:17.151Z,2.55
2023-08-13T00:15:43.679Z,3.40
2023-08-13T00:18:11.642Z,2.80
2023-08-13T00:20:38.082Z,2.67
2023-08-13T00:23:04.718Z,2.78
2023-08-13T00:25:31.181Z,2.50
2023-08-13T00:27:57.548Z,2.55
2023-08-13T00:30:23.938Z,2.40
2023-08-13T00:32:50.408Z,2.78
2023-08-13T00:35:16.791Z,2.60
2023-08-13T00:37:44.032Z,2.42
2023-08-13T00:40:11.349Z,2.38
2023-08-13T00:42:37.810Z,2.90
2023-08-13T00:45:05.348Z,2.95
2023-08-13T00:47:31.869Z,2.20
2023-08-13T00:49:58.344Z,2.20
2023-08-13T00:52:24.819Z,2.42
2023-08-13T00:54:52.928Z,2.28
2023-08-13T00:57:19.401Z,2.17
2023-08-13T00:59:45.916Z,2.35
2023-08-13T01:02:12.800Z,1.88
2023-08-13T01:04:39.525Z,2.20
2023-08-13T01:07:14.874Z,2.75
2023-08-13T01:09:47.456Z,2.47
2023-08-13T01:12:27.093Z,2.83
2023-08-13T01:15:12.312Z,2.63
2023-08-13T01:17:39.006Z,2.08
2023-08-13T01:20:06.831Z,3.17
2023-08-13T01:22:36.609Z,1.60
2023-08-13T01:25:03.225Z,2.25
2023-08-13T01:27:39.128Z,2.55
2023-08-13T01:30:09.975Z,2.13
2023-08-13T01:32:40.689Z,2.30
2023-08-13T01:35:08.311Z,2.25
2023-08-13T01:37:35.260Z,2.88
2023-08-13T01:40:01.866Z,2.47
2023-08-13T01:42:28.558Z,3.55
2023-08-13T01:44:54.994Z,2.75
2023-08-13T01:47:21.377Z,2.22
2023-08-13T01:49:47.774Z,2.97
2023-08-13T01:52:14.458Z,2.30
2023-08-13T01:54:40.971Z,2.47
2023-08-13T01:57:07.383Z,2.40
2023-08-13T01:59:33.820Z,3.75
2023-08-13T02:02:00.314Z,2.42
2023-08-13T02:04:26.728Z,2.10
2023-08-13T02:06:53.183Z,2.45
2023-08-13T02:09:19.609Z,1.98
2023-08-13T02:11:46.043Z,2.70
2023-08-13T02:14:12.500Z,3.08
2023-08-13T02:16:39.164Z,3.03
2023-08-13T02:19:05.784Z,3.00
2023-08-13T02:21:32.223Z,2.65
2023-08-13T02:23:58.734Z,2.53
2023-08-13T02:26:25.239Z,2.20
2023-08-13T02:28:51.709Z,2.63
2023-08-13T02:31:18.242Z,2.20
2023-08-13T02:33:44.684Z,3.22
2023-08-13T02:36:11.261Z,2.35
2023-08-13T02:38:37.778Z,3.88
2023-08-13T02:41:04.434Z,2.97
2023-08-13T02:43:48.794Z,2.72
2023-08-13T02:46:15.271Z,2.92
2023-08-13T02:48:41.749Z,2.50
2023-08-13T02:51:08.207Z,2.88
2023-08-13T02:53:34.592Z,2.83
2023-08-13T02:56:00.981Z,2.33
2023-08-13T02:58:27.419Z,2.28
2023-08-13T03:00:53.833Z,3.50
2023-08-13T03:03:20.361Z,3.83
2023-08-13T03:05:46.848Z,2.47
2023-08-13T03:08:13.394Z,2.85
2023-08-13T03:10:39.828Z,2.63
2023-08-13T03:13:06.882Z,2.53
2023-08-13T03:15:33.429Z,2.60
2023-08-13T03:18:00.464Z,3.38
2023-08-13T03:20:28.752Z,2.55
2023-08-13T03:22:55.991Z,2.42
2023-08-13T03:25:22.453Z,2.70
2023-08-13T03:27:49.447Z,2.35
2023-08-13T03:30:18.035Z,2.40
2023-08-13T03:32:44.645Z,2.97
2023-08-13T03:35:15.070Z,2.47
2023-08-13T03:37:41.511Z,2.47
2023-08-13T03:40:09.885Z,3.55
2023-08-13T03:42:36.301Z,2.65
2023-08-13T03:45:02.995Z,2.88
2023-08-13T03:47:29.456Z,2.13
2023-08-13T03:49:55.924Z,2.90
2023-08-13T03:52:23.546Z,2.90
2023-08-13T03:54:49.987Z,2.70
2023-08-13T03:57:16.442Z,2.80
2023-08-13T03:59:43.576Z,3.05
2023-08-13T04:02:10.178Z,3.00
2023-08-13T04:04:36.670Z,3.17
2023-08-13T04:07:04.213Z,2.33
2023-08-13T04:09:31.044Z,2.78
2023-08-13T04:11:57.433Z,2.97
2023-08-13T04:14:23.861Z,2.78
2023-08-13T04:16:50.394Z,3.00
2023-08-13T04:19:17.175Z,4.03
2023-08-13T04:21:43.608Z,2.58
2023-08-13T04:24:11.788Z,2.35
2023-08-13T04:26:38.230Z,2.47
2023-08-13T04:29:07.133Z,2.70
2023-08-13T04:31:33.731Z,2.85
2023-08-13T04:34:00.191Z,2.70
2023-08-13T04:36:26.726Z,2.75
2023-08-13T04:38:55.856Z,2.70
2023-08-13T04:41:23.283Z,3.20
2023-08-13T04:43:50.018Z,2.65
2023-08-13T04:46:16.460Z,3.67
2023-08-13T04:48:51.966Z,2.80
2023-08-13T04:51:24.083Z,2.15
2023-08-13T04:53:50.689Z,2.47
2023-08-13T04:56:19.007Z,2.67
2023-08-13T04:58:45.514Z,3.00
2023-08-13T05:01:12.830Z,3.10
2023-08-13T05:03:41.753Z,2.78
2023-08-13T05:06:08.189Z,2.55
2023-08-13T05:08:34.981Z,2.05
2023-08-13T05:11:01.801Z,3.00
2023-08-13T05:13:28.564Z,2.30
2023-08-13T05:15:55.090Z,2.38
2023-08-13T05:18:21.630Z,2.42
2023-08-13T05:20:48.418Z,2.45
2023-08-13T05:23:14.939Z,2.50
2023-08-13T05:25:41.415Z,2.47
2023-08-13T05:28:09.730Z,3.67
2023-08-13T05:30:38.048Z,2.20
2023-08-13T05:33:04.868Z,3.15
2023-08-13T05:35:31.641Z,2.22
2023-08-13T05:37:58.616Z,2.05
2023-08-13T05:40:25.155Z,2.50
2023-08-13T05:42:51.715Z,2.03
2023-08-13T05:45:18.994Z,2.42
2023-08-13T05:47:45.664Z,2.50
2023-08-13T05:50:12.337Z,2.58
2023-08-13T05:52:40.838Z,2.80
2023-08-13T05:55:07.636Z,1.70
2023-08-13T05:57:34.081Z,2.15
2023-08-13T06:00:01.045Z,2.47
2023-08-13T06:02:27.452Z,2.47
2023-08-13T06:04:53.893Z,2.22
2023-08-13T06:07:20.297Z,2.10
2023-08-13T06:09:46.752Z,2.60
2023-08-13T06:12:13.474Z,2.83
2023-08-13T06:14:40.162Z,2.08
2023-08-13T06:17:14.566Z,2.78
2023-08-13T06:19:43.706Z,2.45
2023-08-13T06:22:10.757Z,1.90
2023-08-13T06:24:37.167Z,2.63
2023-08-13T06:27:03.664Z,3.33
2023-08-13T06:29:30.064Z,2.03
2023-08-13T06:31:56.502Z,2.05
2023-08-13T06:34:22.994Z,1.60
2023-08-13T06:36:49.416Z,2.53
2023-08-13T06:39:15.833Z,2.10
2023-08-13T06:41:42.257Z,1.77
2023-08-13T06:44:16.453Z,2.33
2023-08-13T06:46:42.949Z,2.10
2023-08-13T06:49:09.352Z,2.10
2023-08-13T06:51:35.739Z,2.47
2023-08-13T06:54:02.258Z,2.03
2023-08-13T06:56:28.728Z,1.92
2023-08-13T06:58:55.139Z,2.45
2023-08-13T07:01:21.564Z,2.00
2023-08-13T07:03:48.269Z,1.90
2023-08-13T07:06:15.211Z,1.92
2023-08-13T07:08:41.733Z,2.25
2023-08-13T07:11:08.142Z,1.70
2023-08-13T07:13:34.598Z,1.95
2023-08-13T07:16:01.133Z,1.90
2023-08-13T07:18:27.558Z,2.13
2023-08-13T07:20:54.007Z,2.67
2023-08-13T07:23:20.479Z,1.77
2023-08-13T07:25:47.329Z,2.22
2023-08-13T07:28:13.726Z,2.00
2023-08-13T07:30:40.639Z,1.98
2023-08-13T07:33:07.118Z,1.27
2023-08-13T07:35:33.532Z,1.95
2023-08-13T07:37:59.876Z,1.77
2023-08-13T07:40:26.267Z,1.52
2023-08-13T07:42:52.706Z,1.40
2023-08-13T07:45:19.221Z,1.67
2023-08-13T07:47:45.828Z,1.42
2023-08-13T07:50:12.891Z,1.67
2023-08-13T07:52:39.314Z,1.83
2023-08-13T07:55:06.685Z,1.50
2023-08-13T07:57:33.160Z,1.50
2023-08-13T07:59:59.757Z,1.58
2023-08-13T08:02:26.428Z,1.63
2023-08-13T08:04:52.873Z,1.33
2023-08-13T08:07:20.021Z,2.25
2023-08-13T08:09:46.554Z,1.48
2023-08-13T08:12:13.413Z,1.15
2023-08-13T08:14:40.064Z,1.77
2023-08-13T08:17:08.278Z,1.98
2023-08-13T08:19:34.709Z,1.55
2023-08-13T08:22:01.176Z,1.45
2023-08-13T08:24:27.663Z,1.35
2023-08-13T08:26:54.031Z,1.50
2023-08-13T08:29:20.450Z,1.08
2023-08-13T08:31:46.841Z,1.38
2023-08-13T08:34:13.203Z,0.95
2023-08-13T08:36:39.581Z,1.45
2023-08-13T08:39:06.011Z,1.08
2023-08-13T08:41:33.056Z,1.20
2023-08-13T08:43:59.768Z,1.48
2023-08-13T08:46:30.752Z,1.15
2023-08-13T08:48:58.462Z,1.02
2023-08-13T08:51:25.263Z,1.20
2023-08-13T08:53:52.411Z,1.35
2023-08-13T08:56:18.812Z,1.08
2023-08-13T08:58:45.262Z,1.30
2023-08-13T09:01:11.708Z,0.90
2023-08-13T09:03:38.225Z,1.48
2023-08-13T09:06:19.407Z,1.08
2023-08-13T09:08:47.611Z,1.60
2023-08-13T09:11:14.225Z,1.33
2023-08-13T09:13:50.076Z,1.30
2023-08-13T09:16:16.723Z,1.30
2023-08-13T09:18:43.146Z,1.15
2023-08-13T09:21:10.040Z,1.42
2023-08-13T09:23:38.648Z,1.70
2023-08-13T09:26:06.235Z,1.42
2023-08-13T09:28:33.462Z,1.60
2023-08-13T09:31:00.120Z,1.40
2023-08-13T09:33:27.239Z,1.83
2023-08-13T09:35:53.697Z,2.22
2023-08-13T09:38:21.030Z,2.13
2023-08-13T09:40:48.592Z,2.03
2023-08-13T09:43:17.195Z,2.00
2023-08-13T09:45:45.094Z,1.60
2023-08-13T09:48:11.910Z,1.55
2023-08-13T09:50:41.731Z,3.60
2023-08-13T09:53:09.345Z,1.77
2023-08-13T09:55:44.549Z,1.70
2023-08-13T09:58:12.734Z,1.65
2023-08-13T10:00:39.358Z,1.92
2023-08-13T10:03:06.053Z,2.55
2023-08-13T10:05:33.542Z,2.72
2023-08-13T10:08:00.346Z,2.33
2023-08-13T10:10:27.621Z,2.70
2023-08-13T10:12:54.154Z,2.10
2023-08-13T10:15:21.400Z,1.70
2023-08-13T10:17:47.953Z,2.10
2023-08-13T10:20:14.449Z,2.20
2023-08-13T10:22:41.823Z,2.00
2023-08-13T10:25:09.052Z,2.47
2023-08-13T10:27:36.926Z,2.45
2023-08-13T10:30:13.506Z,2.53
2023-08-13T10:32:51.883Z,2.55
2023-08-13T10:35:40.301Z,2.22
2023-08-13T10:38:10.434Z,1.77
2023-08-13T10:40:57.070Z,1.98
2023-08-13T10:43:23.431Z,2.78
2023-08-13T10:45:49.956Z,1.60
2023-08-13T10:48:26.112Z,1.67
2023-08-13T10:50:55.153Z,2.35
2023-08-13T10:53:23.292Z,1.95
2023-08-13T10:55:53.914Z,1.80
2023-08-13T10:58:29.548Z,2.20
2023-08-13T11:01:00.384Z,2.17
2023-08-13T11:03:29.332Z,2.15
2023-08-13T11:05:55.871Z,1.98
2023-08-13T11:08:33.982Z,2.00
2023-08-13T11:11:08.450Z,3.05
2023-08-13T11:13:34.856Z,2.72
2023-08-13T11:16:02.730Z,2.45
2023-08-13T11:18:29.307Z,2.05
2023-08-13T11:20:55.893Z,2.42
2023-08-13T11:23:23.040Z,2.10
2023-08-13T11:25:50.467Z,2.10
2023-08-13T11:28:21.253Z,2.67
2023-08-13T11:30:48.484Z,1.80
2023-08-13T11:33:15.548Z,2.10
2023-08-13T11:35:42.287Z,1.98
2023-08-13T11:38:08.725Z,2.05
2023-08-13T11:40:35.347Z,2.30
2023-08-13T11:43:02.502Z,1.95
2023-08-13T11:45:31.180Z,2.55
2023-08-13T11:48:17.552Z,2.25
2023-08-13T11:50:48.504Z,1.77
2023-08-13T11:53:16.196Z,1.45
2023-08-13T11:55:43.527Z,2.92
2023-08-13T11:58:10.033Z,2.15
2023-08-13T12:00:37.486Z,1.80
2023-08-13T12:03:04.451Z,2.72
2023-08-13T12:05:32.073Z,1.70
2023-08-13T12:07:59.620Z,1.80
2023-08-13T12:10:27.011Z,2.05
2023-08-13T12:12:53.445Z,2.63
2023-08-13T12:15:24.778Z,2.00
2023-08-13T12:17:54.328Z,1.92
2023-08-13T12:20:20.978Z,1.55
2023-08-13T12:22:47.514Z,1.85
2023-08-13T12:25:13.974Z,1.80
2023-08-13T12:27:40.472Z,1.73
2023-08-13T12:30:07.222Z,2.40
2023-08-13T12:32:33.659Z,2.20
2023-08-13T12:35:00.122Z,1.95
2023-08-13T12:37:26.609Z,2.25
2023-08-13T12:39:53.160Z,2.05
2023-08-13T12:42:20.792Z,2.55
2023-08-13T12:44:47.400Z,2.17
2023-08-13T12:47:13.852Z,2.40
2023-08-13T12:49:40.285Z,2.00
2023-08-13T12:52:06.866Z,1.88
2023-08-13T12:54:33.266Z,2.33
2023-08-13T12:56:59.668Z,2.10
2023-08-13T12:59:26.066Z,1.80
2023-08-13T13:01:52.467Z,1.90
2023-08-13T13:04:18.862Z,1.80
2023-08-13T13:06:45.313Z,2.00
2023-08-13T13:09:12.015Z,2.17
2023-08-13T13:11:38.461Z,2.25
2023-08-13T13:14:04.927Z,2.13
2023-08-13T13:16:31.407Z,1.98
2023-08-13T13:18:57.859Z,1.88
2023-08-13T13:21:24.706Z,2.38
2023-08-13T13:23:52.240Z,1.90
2023-08-13T13:26:19.055Z,2.63
2023-08-13T13:28:45.534Z,2.22
2023-08-13T13:31:12.815Z,2.28
2023-08-13T13:33:39.320Z,2.72
2023-08-13T13:36:08.487Z,2.10
2023-08-13T13:38:35.392Z,2.33
2023-08-13T13:41:02.603Z,2.22
2023-08-13T13:43:29.051Z,2.63
2023-08-13T13:45:55.624Z,1.75
2023-08-13T13:48:22.062Z,2.63
2023-08-13T13:50:48.491Z,2.45
2023-08-13T13:53:20.009Z,2.35
2023-08-13T13:55:47.210Z,2.22
2023-08-13T13:58:13.646Z,1.80
2023-08-13T14:00:40.106Z,1.95
2023-08-13T14:03:06.641Z,2.85
2023-08-13T14:05:33.223Z,2.10
2023-08-13T14:07:59.706Z,2.60
2023-08-13T14:10:26.237Z,2.38
2023-08-13T14:12:52.660Z,2.20
2023-08-13T14:15:19.154Z,2.45
2023-08-13T14:17:45.592Z,1.90
2023-08-13T14:20:13.167Z,2.63
2023-08-13T14:22:39.594Z,2.50
2023-08-13T14:25:06.611Z,2.05
2023-08-13T14:27:33.055Z,2.78
2023-08-13T14:29:59.525Z,2.05
2023-08-13T14:32:26.502Z,2.70
2023-08-13T14:34:53.022Z,2.83
2023-08-13T14:37:19.468Z,2.58
2023-08-13T14:39:46.213Z,2.40
2023-08-13T14:42:13.571Z,2.13
2023-08-13T14:44:40.286Z,2.40
2023-08-13T14:47:06.722Z,3.08
2023-08-13T14:49:33.165Z,2.22
2023-08-13T14:51:59.585Z,2.08
2023-08-13T14:54:26.001Z,2.22
2023-08-13T14:56:52.447Z,1.63
2023-08-13T14:59:18.986Z,1.85
2023-08-13T15:01:47.893Z,1.45
2023-08-13T15:04:14.345Z,1.23
2023-08-13T15:06:40.899Z,1.45
2023-08-13T15:09:07.269Z,1.50
2023-08-13T15:11:33.673Z,1.20
2023-08-13T15:14:00.101Z,1.33
2023-08-13T15:16:26.660Z,1.25
2023-08-13T15:18:53.202Z,1.73
2023-08-13T15:21:19.666Z,1.02
2023-08-13T15:23:46.637Z,1.10
2023-08-13T15:26:13.080Z,1.13
2023-08-13T15:28:39.572Z,1.30
2023-08-13T15:31:10.536Z,1.42
2023-08-13T15:33:37.673Z,1.30
2023-08-13T15:36:04.446Z,1.38
2023-08-13T15:38:30.921Z,0.93
2023-08-13T15:40:57.475Z,1.27
2023-08-13T15:43:23.974Z,1.38
2023-08-13T15:45:50.388Z,1.13
2023-08-13T15:48:17.086Z,1.33
2023-08-13T15:50:44.536Z,1.70
2023-08-13T15:53:11.024Z,1.50
2023-08-13T15:55:39.113Z,1.88
2023-08-13T15:58:10.563Z,1.42
2023-08-13T16:00:37.237Z,1.15
2023-08-13T16:03:04.253Z,1.77
2023-08-13T16:05:30.691Z,1.13
2023-08-13T16:07:57.187Z,1.80
2023-08-13T16:10:23.780Z,1.35
2023-08-13T16:12:50.266Z,1.67
2023-08-13T16:15:16.801Z,1.40
2023-08-13T16:17:46.546Z,1.30
2023-08-13T16:20:13.853Z,1.80
2023-08-13T16:22:41.695Z,1.25
2023-08-13T16:25:08.523Z,1.08
2023-08-13T16:27:35.259Z,0.82
2023-08-13T16:30:02.155Z,1.05
2023-08-13T16:32:30.180Z,1.30
2023-08-13T16:34:56.857Z,1.15
2023-08-13T16:37:23.411Z,1.30
2023-08-13T16:39:49.998Z,1.20
2023-08-13T16:42:16.677Z,1.20
2023-08-13T16:44:43.295Z,1.00
2023-08-13T16:47:09.706Z,0.90
2023-08-13T16:49:36.161Z,1.10
2023-08-13T16:52:02.603Z,1.30
2023-08-13T16:54:28.987Z,1.13
2023-08-13T16:56:55.433Z,0.90
2023-08-13T16:59:21.995Z,1.17
2023-08-13T17:01:48.429Z,0.93
2023-08-13T17:04:15.106Z,1.20
2023-08-13T17:06:41.688Z,1.90
2023-08-13T17:09:09.310Z,1.10
2023-08-13T17:11:35.773Z,1.00
2023-08-13T17:14:02.218Z,0.73
2023-08-13T17:16:28.741Z,0.93
2023-08-13T17:18:55.220Z,1.10
2023-08-13T17:21:21.641Z,0.75
2023-08-13T17:23:48.063Z,1.48
2023-08-13T17:26:14.464Z,1.13
2023-08-13T17:28:40.902Z,1.25
2023-08-13T17:31:07.429Z,1.13
2023-08-13T17:33:33.926Z,1.23
2023-08-13T17:36:00.445Z,1.20
2023-08-13T17:38:26.839Z,0.82
2023-08-13T17:40:53.986Z,1.00
2023-08-13T17:43:20.577Z,0.90
2023-08-13T17:45:47.087Z,0.82
2023-08-13T17:48:14.434Z,1.10
2023-08-13T17:50:42.345Z,1.15
2023-08-13T17:53:10.759Z,1.00
2023-08-13T17:55:37.223Z,1.08
2023-08-13T17:58:04.346Z,1.20
2023-08-13T18:00:30.799Z,1.27
2023-08-13T18:02:57.299Z,1.02
2023-08-13T18:05:23.923Z,1.83
2023-08-13T18:07:52.308Z,1.00
2023-08-13T18:10:20.466Z,0.90
2023-08-13T18:12:48.903Z,0.70
2023-08-13T18:15:17.073Z,0.80
2023-08-13T18:17:46.096Z,0.70
2023-08-13T18:20:13.054Z,1.00
2023-08-13T18:22:42.745Z,0.90
2023-08-13T18:25:12.624Z,1.15
2023-08-13T18:27:39.373Z,0.90
2023-08-13T18:30:06.136Z,1.23
2023-08-13T18:32:32.579Z,0.55
2023-08-13T18:34:59.094Z,0.85
2023-08-13T18:37:25.930Z,1.00
2023-08-13T18:39:52.586Z,1.00
2023-08-13T18:42:19.544Z,0.80
2023-08-13T18:44:47.348Z,1.08
2023-08-13T18:47:14.438Z,0.70
2023-08-13T18:49:40.895Z,0.60
2023-08-13T18:52:07.585Z,0.70
2023-08-13T18:54:34.252Z,0.80
2023-08-13T18:57:00.762Z,1.20
2023-08-13T18:59:30.625Z,0.80
2023-08-13T19:01:57.306Z,0.95
2023-08-13T19:04:24.359Z,0.80
2023-08-13T19:06:50.800Z,0.88
2023-08-13T19:09:17.267Z,0.88
2023-08-13T19:11:44.511Z,0.70
2023-08-13T19:14:11.645Z,1.05
2023-08-13T19:16:38.619Z,0.77
2023-08-13T19:19:05.698Z,1.77
2023-08-13T19:21:32.372Z,2.10
2023-08-13T19:23:58.858Z,0.90
2023-08-13T19:26:26.042Z,0.85
2023-08-13T19:28:52.816Z,1.13
2023-08-13T19:31:19.343Z,2.30
2023-08-13T19:33:45.849Z,1.98
2023-08-13T19:36:13.451Z,3.88
2023-08-13T19:38:40.146Z,5.45
2023-08-13T19:41:06.789Z,3.95
2023-08-13T19:43:33.353Z,7.20
2023-08-13T19:46:03.287Z,4.85
2023-08-13T19:48:29.946Z,4.35
2023-08-13T19:50:56.439Z,7.30
2023-08-13T19:53:22.883Z,5.05
2023-08-13T19:55:50.985Z,15.90
2023-08-13T19:58:17.939Z,20.70
2023-08-13T20:00:44.751Z,20.88
2023-08-13T20:03:11.364Z,9.80
2023-08-13T20:05:38.019Z,10.10
2023-08-13T20:08:05.141Z,7.72
2023-08-13T20:10:32.515Z,5.65
2023-08-13T20:12:58.981Z,4.25
2023-08-13T20:15:25.371Z,3.80
2023-08-13T20:17:52.498Z,2.65
2023-08-13T20:20:19.014Z,14.77
2023-08-13T20:22:45.497Z,5.30
2023-08-13T20:25:12.180Z,6.57
2023-08-13T20:27:38.831Z,5.38
2023-08-13T20:30:05.701Z,3.22
2023-08-13T20:32:32.903Z,1.85
2023-08-13T20:34:59.527Z,1.90
2023-08-13T20:37:30.742Z,2.03
2023-08-13T20:40:00.198Z,1.63
2023-08-13T20:42:26.773Z,1.95
2023-08-13T20:44:53.266Z,2.05
2023-08-13T20:47:19.643Z,1.70
2023-08-13T20:49:46.180Z,1.80
2023-08-13T20:52:12.717Z,2.03
2023-08-13T20:54:39.203Z,2.22
2023-08-13T20:57:05.967Z,1.75
2023-08-13T20:59:33.865Z,1.95
2023-08-13T21:02:00.402Z,2.05
2023-08-13T21:04:26.901Z,2.05
2023-08-13T21:06:53.338Z,1.83
2023-08-13T21:09:19.756Z,2.53
2023-08-13T21:11:46.158Z,2.53
2023-08-13T21:14:12.579Z,2.45
2023-08-13T21:16:39.104Z,3.50
2023-08-13T21:19:05.614Z,2.13
2023-08-13T21:21:32.037Z,2.30
2023-08-13T21:23:58.558Z,3.28
2023-08-13T21:26:25.190Z,5.18
2023-08-13T21:28:51.668Z,3.30
2023-08-13T21:31:18.182Z,2.60
2023-08-13T21:33:44.745Z,2.38
2023-08-13T21:36:11.290Z,2.17
2023-08-13T21:38:37.779Z,2.20
2023-08-13T21:41:04.647Z,3.63
2023-08-13T21:43:31.086Z,5.20
2023-08-13T21:45:57.613Z,2.90
2023-08-13T21:48:24.010Z,2.80
2023-08-13T21:50:50.484Z,2.20
2023-08-13T21:53:16.934Z,2.60
2023-08-13T21:55:43.307Z,2.40
2023-08-13T21:58:09.730Z,2.30
2023-08-13T22:00:36.151Z,1.90
2023-08-13T22:03:02.737Z,2.50
2023-08-13T22:05:29.239Z,2.20
2023-08-13T22:07:55.684Z,2.05
2023-08-13T22:10:22.117Z,2.53
2023-08-13T22:12:48.542Z,4.68
2023-08-13T22:15:15.026Z,3.65
2023-08-13T22:17:41.789Z,3.70
2023-08-13T22:20:08.784Z,3.80
2023-08-13T22:22:35.578Z,3.05
2023-08-13T22:25:02.208Z,2.90
2023-08-13T22:27:28.761Z,2.45
2023-08-13T22:29:55.667Z,2.28
2023-08-13T22:32:22.169Z,2.53
2023-08-13T22:34:48.634Z,2.50
2023-08-13T22:37:15.000Z,2.08
2023-08-13T22:39:41.441Z,2.50
2023-08-13T22:42:07.936Z,1.98
2023-08-13T22:44:34.397Z,2.25
2023-08-13T22:47:00.900Z,2.20
2023-08-13T22:49:37.500Z,2.28
2023-08-13T22:52:07.320Z,2.10
2023-08-13T22:54:37.051Z,2.17
2023-08-13T22:57:07.222Z,2.20
2023-08-13T22:59:33.945Z,2.08
2023-08-13T23:02:01.446Z,1.70
2023-08-13T23:04:28.338Z,2.15
2023-08-13T23:06:58.112Z,1.70
2023-08-13T23:09:24.869Z,2.15
2023-08-13T23:11:51.573Z,1.90
2023-08-13T23:14:18.017Z,2.38
2023-08-13T23:16:44.702Z,2.40
2023-08-13T23:19:11.469Z,2.58
2023-08-13T23:21:37.898Z,2.30
2023-08-13T23:24:05.464Z,2.58
2023-08-13T23:26:31.916Z,2.08
2023-08-13T23:28:58.366Z,2.38
2023-08-13T23:31:24.939Z,2.10
2023-08-13T23:33:51.421Z,1.85
2023-08-13T23:36:17.849Z,2.75
2023-08-13T23:38:44.648Z,2.63
2023-08-13T23:41:11.098Z,2.17
2023-08-13T23:43:37.792Z,2.03
2023-08-13T23:46:04.389Z,2.38
2023-08-13T23:48:30.856Z,2.58
2023-08-13T23:51:00.131Z,1.85
2023-08-13T23:53:27.711Z,1.90
2023-08-13T23:55:54.113Z,1.70
2023-08-13T23:58:20.495Z,1.92
